Time;durP1;ratioP1;P1;durP2;ratioP2;P2;SDS_P1;SDS_P2;PMS_P1;PMS_P2;Temp;Humidity;BMP_temperature;BMP_pressure;BME280_temperature;BME280_humidity;BME280_pressure;Samples;Min_cycle;Max_cycle;Signal;HPM_P1;HPM_P2
2021/12/18 00:02:21;;;;;;;;;;;7.10;62.00;;;;;;5074001;28;19904;-64
2021/12/18 00:04:47;;;;;;;;;;;7.00;61.90;;;;;;5073991;28;19912;-62
2021/12/18 00:07:12;;;;;;;;;;;7.10;62.00;;;;;;5073967;28;19915;-65
2021/12/18 00:09:39;;;;;;;;;;;7.00;62.00;;;;;;5054873;28;20377;-64
2021/12/18 00:12:04;;;;;;;;;;;7.00;61.90;;;;;;5057335;28;19954;-65
2021/12/18 00:14:30;;;;;;;;;;;7.00;62.00;;;;;;5073893;28;19916;-62
2021/12/18 00:16:56;;;;;;;;;;;7.00;62.10;;;;;;5073495;28;19917;-63
2021/12/18 00:19:26;;;;;;;;;;;7.00;62.10;;;;;;5057196;28;20007;-64
2021/12/18 00:21:52;;;;;;;;;;;7.00;62.10;;;;;;5053748;28;20358;-64
2021/12/18 00:24:19;;;;;;;;;;;6.90;62.10;;;;;;5053574;28;19913;-65
2021/12/18 00:26:44;;;;;;;;;;;6.90;62.20;;;;;;5053523;28;19916;-63
2021/12/18 00:29:10;;;;;;;;;;;6.90;62.20;;;;;;5065963;28;20006;-63
2021/12/18 00:31:35;;;;;;;;;;;6.80;62.10;;;;;;5073506;28;19935;-63
2021/12/18 00:34:01;;;;;;;;;;;6.90;62.30;;;;;;5073470;28;20279;-63
2021/12/18 00:36:27;;;;;;;;;;;6.80;63.10;;;;;;5073316;28;19958;-63
2021/12/18 00:38:52;;;;;;;;;;;6.80;62.40;;;;;;5061424;28;20362;-63
2021/12/18 00:41:37;;;;;;;;;;;6.90;62.50;;;;;;5054347;28;19909;-63
2021/12/18 00:44:03;;;;;;;;;;;6.90;62.60;;;;;;5053249;28;19909;-63
2021/12/18 00:46:30;;;;;;;;;;;6.90;62.80;;;;;;5053192;28;19943;-63
2021/12/18 00:48:56;;;;;;;;;;;6.90;62.90;;;;;;5051492;28;20561;-63
2021/12/18 00:51:22;;;;;;;;;;;6.90;62.90;;;;;;5063486;28;20003;-63
2021/12/18 00:53:47;;;;;;;;;;;6.90;62.90;;;;;;5065802;28;19912;-63
2021/12/18 00:56:13;;;;;;;;;;;6.90;62.90;;;;;;5052953;28;20328;-63
2021/12/18 00:58:39;;;;;;;;;;;7.00;62.90;;;;;;5052971;28;20003;-63
2021/12/18 01:01:08;;;;;;;;;;;7.00;62.90;;;;;;5062252;28;19916;-63
2021/12/18 01:03:35;;;;;;;;;;;7.10;63.00;;;;;;5072747;28;19912;-63
2021/12/18 01:06:01;;;;;;;;;;;7.10;62.90;;;;;;5072691;28;19913;-63
2021/12/18 01:08:26;;;;;;;;;;;7.20;62.80;;;;;;5072710;28;19912;-63
2021/12/18 01:11:52;;;;;;;;;;;7.20;62.80;;;;;;5064864;28;19912;-63
2021/12/18 01:14:07;;;;;;;;;;;7.20;62.70;;;;;;5056247;28;19960;-63
2021/12/18 01:24:50;;;;;;;;;;;7.20;62.30;;;;;;5072406;28;19966;-63
2021/12/18 01:27:15;;;;;;;;;;;7.20;62.30;;;;;;5072372;28;20365;-63
2021/12/18 01:29:41;;;;;;;;;;;7.20;62.20;;;;;;5072403;28;19919;-63
2021/12/18 01:32:07;;;;;;;;;;;7.20;62.20;;;;;;5060659;28;19916;-63
2021/12/18 01:34:33;;;;;;;;;;;7.20;62.20;;;;;;5052454;28;19960;-63
2021/12/18 01:36:59;;;;;;;;;;;7.20;62.20;;;;;;5052303;28;19952;-63
2021/12/18 01:39:24;;;;;;;;;;;7.20;62.30;;;;;;5052189;28;19916;-63
2021/12/18 01:52:22;;;;;;;;;;;7.10;62.30;;;;;;5052822;28;20398;-63
2021/12/18 01:54:48;;;;;;;;;;;7.10;62.40;;;;;;5069149;28;19967;-63
2021/12/18 01:57:14;;;;;;;;;;;7.10;62.50;;;;;;5064995;28;19971;-63
2021/12/18 01:59:43;;;;;;;;;;;7.10;62.60;;;;;;5063236;28;19915;-63
2021/12/18 02:02:09;;;;;;;;;;;7.10;62.60;;;;;;5080333;28;19915;-63
2021/12/18 02:04:34;;;;;;;;;;;7.10;62.70;;;;;;5071761;28;19916;-63
2021/12/18 02:07:00;;;;;;;;;;;7.00;62.60;;;;;;5071782;28;20007;-63
2021/12/18 02:09:35;;;;;;;;;;;7.10;62.60;;;;;;5071788;28;19913;-63
2021/12/18 02:12:02;;;;;;;;;;;7.00;62.50;;;;;;5063272;28;19912;-63
2021/12/18 02:19:32;;;;;;;;;;;7.00;62.50;;;;;;5051683;28;19908;-63
2021/12/18 02:20:23;;;;;;;;;;;7.00;62.50;;;;;;5071810;28;19916;-63
2021/12/18 02:22:50;;;;;;;;;;;7.00;62.50;;;;;;5055640;28;19916;-63
2021/12/18 02:25:15;;;;;;;;;;;7.00;63.30;;;;;;5051403;28;19917;-63
2021/12/18 02:27:41;;;;;;;;;;;7.00;62.70;;;;;;5051441;28;19987;-63
2021/12/18 02:30:08;;;;;;;;;;;7.00;62.80;;;;;;5051672;28;20374;-63
2021/12/18 02:32:33;;;;;;;;;;;7.00;62.80;;;;;;5063599;28;19912;-63
2021/12/18 02:35:04;;;;;;;;;;;7.00;62.80;;;;;;5058551;28;19913;-64
2021/12/18 02:37:33;;;;;;;;;;;7.00;62.90;;;;;;5050603;28;20255;-64
2021/12/18 02:42:28;;;;;;;;;;;7.00;62.90;;;;;;5062971;28;19916;-63
2021/12/18 02:44:53;;;;;;;;;;;7.00;62.90;;;;;;5071799;28;19916;-64
2021/12/18 02:47:19;;;;;;;;;;;7.00;62.80;;;;;;5072003;28;19909;-63
2021/12/18 02:49:47;;;;;;;;;;;7.00;62.80;;;;;;5071196;28;19909;-63
2021/12/18 02:52:12;;;;;;;;;;;7.00;62.80;;;;;;5061084;28;20346;-63
2021/12/18 02:54:42;;;;;;;;;;;7.00;62.80;;;;;;5072427;28;19952;-63
2021/12/18 02:57:08;;;;;;;;;;;7.00;62.70;;;;;;5072429;28;19970;-63
2021/12/18 02:59:47;;;;;;;;;;;7.00;62.70;;;;;;5072339;28;20366;-63
2021/12/18 03:02:13;;;;;;;;;;;7.00;62.60;;;;;;5059772;28;19920;-63
2021/12/18 03:04:40;;;;;;;;;;;7.00;62.60;;;;;;5052238;28;19917;-63
2021/12/18 03:07:09;;;;;;;;;;;7.00;62.50;;;;;;5052339;28;19952;-63
2021/12/18 03:23:40;;;;;;;;;;;6.90;62.50;;;;;;5055735;28;19915;-63
2021/12/18 03:26:05;;;;;;;;;;;6.80;62.40;;;;;;5055641;28;19920;-63
2021/12/18 03:28:31;;;;;;;;;;;6.90;62.50;;;;;;5055585;28;19909;-63
2021/12/18 03:30:57;;;;;;;;;;;6.90;62.40;;;;;;5056878;28;19917;-62
2021/12/18 03:33:23;;;;;;;;;;;6.90;62.40;;;;;;5075386;28;20003;-63
2021/12/18 03:35:49;;;;;;;;;;;6.90;62.50;;;;;;5075737;28;19948;-63
2021/12/18 03:38:15;;;;;;;;;;;6.80;62.40;;;;;;5075397;28;19974;-63
2021/12/18 03:40:41;;;;;;;;;;;6.90;62.50;;;;;;5075449;28;20358;-63
2021/12/18 03:43:06;;;;;;;;;;;6.90;62.50;;;;;;5073644;28;20354;-63
2021/12/18 03:45:32;;;;;;;;;;;6.90;62.50;;;;;;5075338;28;20380;-63
2021/12/18 03:47:57;;;;;;;;;;;6.90;62.50;;;;;;5075319;28;19909;-63
2021/12/18 03:50:23;;;;;;;;;;;6.90;62.30;;;;;;5057156;28;19909;-63
2021/12/18 03:52:49;;;;;;;;;;;6.90;62.20;;;;;;5053938;28;19940;-63
2021/12/18 03:55:15;;;;;;;;;;;6.90;62.10;;;;;;5055151;28;19916;-63
2021/12/18 03:57:41;;;;;;;;;;;6.90;62.10;;;;;;5073351;28;20300;-63
2021/12/18 04:00:08;;;;;;;;;;;6.80;62.10;;;;;;5074974;28;19940;-63
2021/12/18 04:02:33;;;;;;;;;;;6.80;62.10;;;;;;5074848;28;19916;-63
2021/12/18 04:04:59;;;;;;;;;;;6.80;62.10;;;;;;5073853;28;19913;-63
2021/12/18 04:07:24;;;;;;;;;;;6.70;62.10;;;;;;5074839;28;19956;-63
2021/12/18 04:09:50;;;;;;;;;;;6.70;62.20;;;;;;5056332;28;19920;-63
2021/12/18 04:12:16;;;;;;;;;;;6.70;62.30;;;;;;5054835;28;19948;-63
2021/12/18 04:14:42;;;;;;;;;;;6.70;62.30;;;;;;5054693;28;19915;-63
2021/12/18 04:17:08;;;;;;;;;;;6.80;62.40;;;;;;5054569;28;19916;-63
2021/12/18 04:19:34;;;;;;;;;;;6.70;62.30;;;;;;5054643;28;20381;-63
2021/12/18 04:21:59;;;;;;;;;;;6.70;62.30;;;;;;5071752;28;19956;-63
2021/12/18 04:24:25;;;;;;;;;;;6.70;62.40;;;;;;5073480;28;19936;-63
2021/12/18 04:26:51;;;;;;;;;;;6.80;62.40;;;;;;5074546;28;19916;-63
2021/12/18 04:29:16;;;;;;;;;;;6.80;62.40;;;;;;5074388;28;19912;-63
2021/12/18 04:31:42;;;;;;;;;;;6.80;62.40;;;;;;5074401;28;19958;-63
2021/12/18 04:34:07;;;;;;;;;;;6.90;62.50;;;;;;5072618;28;20358;-63
2021/12/18 04:36:33;;;;;;;;;;;6.90;62.40;;;;;;5074299;28;19916;-63
2021/12/18 04:38:59;;;;;;;;;;;6.90;62.20;;;;;;5074247;28;19908;-63
2021/12/18 04:41:35;;;;;;;;;;;6.90;62.20;;;;;;5074146;28;20347;-63
2021/12/18 04:44:02;;;;;;;;;;;6.90;62.10;;;;;;5074073;28;20385;-63
2021/12/18 04:46:28;;;;;;;;;;;6.90;62.00;;;;;;5072317;28;19958;-63
2021/12/18 04:48:53;;;;;;;;;;;6.90;61.90;;;;;;5056749;28;20407;-63
2021/12/18 04:51:19;;;;;;;;;;;6.90;61.90;;;;;;5053901;28;19909;-63
2021/12/18 04:53:45;;;;;;;;;;;6.90;61.90;;;;;;5053992;28;19909;-63
2021/12/18 04:56:10;;;;;;;;;;;6.90;61.80;;;;;;5053851;28;20013;-63
2021/12/18 04:58:36;;;;;;;;;;;6.80;61.70;;;;;;5054990;28;20392;-63
2021/12/18 05:01:02;;;;;;;;;;;6.80;61.70;;;;;;5053924;28;19908;-63
2021/12/18 05:03:27;;;;;;;;;;;6.70;61.70;;;;;;5052490;28;19983;-63
2021/12/18 05:05:53;;;;;;;;;;;6.70;61.90;;;;;;5053807;28;19917;-63
2021/12/18 05:08:19;;;;;;;;;;;6.70;62.00;;;;;;5053783;28;20384;-63
2021/12/18 05:10:45;;;;;;;;;;;6.70;61.90;;;;;;5054766;28;19913;-63
2021/12/18 05:13:11;;;;;;;;;;;6.70;61.90;;;;;;5052375;28;19932;-63
2021/12/18 05:15:37;;;;;;;;;;;6.60;61.70;;;;;;5053480;28;19909;-62
2021/12/18 05:18:03;;;;;;;;;;;6.60;61.70;;;;;;5053468;28;19921;-63
2021/12/18 05:20:28;;;;;;;;;;;6.60;61.70;;;;;;5055711;28;19920;-63
2021/12/18 05:22:54;;;;;;;;;;;6.50;61.70;;;;;;5073482;28;19908;-63
2021/12/18 05:25:20;;;;;;;;;;;6.50;61.70;;;;;;5073342;28;20344;-63
2021/12/18 05:27:45;;;;;;;;;;;6.50;61.70;;;;;;5072479;28;19951;-63
2021/12/18 05:30:11;;;;;;;;;;;6.40;61.60;;;;;;5073340;28;19908;-63
2021/12/18 05:32:37;;;;;;;;;;;6.30;61.80;;;;;;5071570;28;19947;-63
2021/12/18 05:35:04;;;;;;;;;;;6.30;61.90;;;;;;5072821;28;19915;-63
2021/12/18 05:40:11;;;;;;;;;;;6.30;62.10;;;;;;5073579;28;19916;-63
2021/12/18 05:42:37;;;;;;;;;;;6.30;62.00;;;;;;5073211;28;19909;-63
2021/12/18 05:45:04;;;;;;;;;;;6.30;62.10;;;;;;5072798;28;20290;-63
2021/12/18 05:47:30;;;;;;;;;;;6.30;62.10;;;;;;5053023;28;19919;-63
2021/12/18 05:49:56;;;;;;;;;;;6.30;62.00;;;;;;5053105;28;19908;-63
2021/12/18 05:52:23;;;;;;;;;;;6.30;62.00;;;;;;5053132;28;19909;-63
2021/12/18 05:54:48;;;;;;;;;;;6.30;62.00;;;;;;5053078;28;19916;-63
2021/12/18 05:57:14;;;;;;;;;;;6.20;61.90;;;;;;5052992;28;19908;-62
2021/12/18 05:59:41;;;;;;;;;;;6.20;61.90;;;;;;5067856;28;19912;-63
2021/12/18 06:02:07;;;;;;;;;;;6.20;61.80;;;;;;5072948;28;19909;-63
2021/12/18 06:04:32;;;;;;;;;;;6.20;61.90;;;;;;5072920;28;19913;-63
2021/12/18 06:07:04;;;;;;;;;;;6.10;61.90;;;;;;5073197;28;20346;-63
2021/12/18 06:09:31;;;;;;;;;;;6.20;62.00;;;;;;5072961;28;19909;-63
2021/12/18 06:11:57;;;;;;;;;;;6.10;61.90;;;;;;5070882;28;19920;-63
2021/12/18 06:14:23;;;;;;;;;;;6.10;62.00;;;;;;5072919;28;19909;-63
2021/12/18 06:16:49;;;;;;;;;;;6.10;62.00;;;;;;5073080;28;19916;-63
2021/12/18 06:19:15;;;;;;;;;;;6.10;62.10;;;;;;5072835;28;20353;-63
2021/12/18 06:21:40;;;;;;;;;;;6.00;62.20;;;;;;5072884;28;19916;-63
2021/12/18 06:24:06;;;;;;;;;;;6.00;62.30;;;;;;5061580;28;20365;-63
2021/12/18 06:26:32;;;;;;;;;;;6.00;62.30;;;;;;5052745;28;19909;-63
2021/12/18 06:28:57;;;;;;;;;;;6.00;62.30;;;;;;5052716;28;20006;-63
2021/12/18 06:31:23;;;;;;;;;;;6.00;62.40;;;;;;5052745;28;19909;-63
2021/12/18 06:33:49;;;;;;;;;;;6.00;62.20;;;;;;5053639;28;19916;-63
2021/12/18 06:36:14;;;;;;;;;;;6.00;63.10;;;;;;5063149;28;20370;-63
2021/12/18 06:38:40;;;;;;;;;;;6.00;62.40;;;;;;5072671;28;20354;-63
2021/12/18 06:41:06;;;;;;;;;;;5.90;62.50;;;;;;5072652;28;19931;-63
2021/12/18 06:43:31;;;;;;;;;;;6.00;63.50;;;;;;5072553;28;19908;-63
2021/12/18 06:45:57;;;;;;;;;;;6.00;62.80;;;;;;5056161;28;20362;-63
2021/12/18 06:48:22;;;;;;;;;;;6.00;62.80;;;;;;5056915;28;19919;-63
2021/12/18 06:50:50;;;;;;;;;;;5.90;62.80;;;;;;5055090;28;19909;-63
2021/12/18 06:53:16;;;;;;;;;;;5.90;62.90;;;;;;5056357;28;20276;-62
2021/12/18 06:55:41;;;;;;;;;;;5.90;62.90;;;;;;5056267;28;19916;-63
2021/12/18 06:58:07;;;;;;;;;;;5.90;63.00;;;;;;5056241;28;19967;-63
2021/12/18 07:00:33;;;;;;;;;;;5.90;63.10;;;;;;5062912;28;19912;-63
2021/12/18 07:02:59;;;;;;;;;;;5.90;63.00;;;;;;5076072;28;19909;-63
2021/12/18 07:05:25;;;;;;;;;;;5.90;63.80;;;;;;5075988;28;19956;-63
2021/12/18 07:07:51;;;;;;;;;;;5.90;63.10;;;;;;5076009;28;19950;-63
2021/12/18 07:10:18;;;;;;;;;;;5.90;63.10;;;;;;5075958;28;19916;-63
2021/12/18 07:12:43;;;;;;;;;;;5.90;63.10;;;;;;5070083;28;20370;-63
2021/12/18 07:15:10;;;;;;;;;;;5.90;63.00;;;;;;5055914;28;19916;-63
2021/12/18 07:17:35;;;;;;;;;;;5.90;63.00;;;;;;5055595;28;20267;-63
2021/12/18 07:20:02;;;;;;;;;;;5.90;63.00;;;;;;5055761;28;19909;-62
2021/12/18 07:22:28;;;;;;;;;;;5.90;63.10;;;;;;5055614;28;19916;-62
2021/12/18 07:24:53;;;;;;;;;;;5.90;63.10;;;;;;5056517;28;19943;-63
2021/12/18 07:27:19;;;;;;;;;;;5.90;63.10;;;;;;5055840;28;19959;-63
2021/12/18 07:29:45;;;;;;;;;;;5.90;63.20;;;;;;5055596;28;19908;-63
2021/12/18 07:32:10;;;;;;;;;;;6.00;63.20;;;;;;5055501;28;19913;-63
2021/12/18 07:34:36;;;;;;;;;;;6.00;63.30;;;;;;5055426;28;19909;-63
2021/12/18 07:37:02;;;;;;;;;;;6.00;63.30;;;;;;5056984;28;19909;-63
2021/12/18 07:39:27;;;;;;;;;;;6.00;63.30;;;;;;5075158;28;19913;-63
2021/12/18 07:41:53;;;;;;;;;;;6.00;63.40;;;;;;5068952;28;19920;-63
2021/12/18 07:44:19;;;;;;;;;;;6.00;63.40;;;;;;5055082;28;19963;-63
2021/12/18 07:46:45;;;;;;;;;;;6.00;63.40;;;;;;5055251;28;19999;-63
2021/12/18 07:49:11;;;;;;;;;;;6.00;63.40;;;;;;5055277;28;20323;-62
2021/12/18 07:51:37;;;;;;;;;;;6.10;63.40;;;;;;5057774;28;19909;-64
2021/12/18 07:54:03;;;;;;;;;;;6.10;63.40;;;;;;5075175;28;20301;-64
2021/12/18 07:56:29;;;;;;;;;;;6.10;63.30;;;;;;5075082;28;19909;-63
2021/12/18 07:58:55;;;;;;;;;;;6.10;63.30;;;;;;5075043;28;19958;-63
2021/12/18 08:01:21;;;;;;;;;;;6.10;63.30;;;;;;5075100;28;20335;-63
2021/12/18 08:03:46;;;;;;;;;;;6.10;63.30;;;;;;5073369;28;19920;-63
2021/12/18 08:06:12;;;;;;;;;;;6.10;63.30;;;;;;5075058;28;19924;-63
2021/12/18 08:08:37;;;;;;;;;;;6.20;63.50;;;;;;5075016;28;19931;-63
2021/12/18 08:11:04;;;;;;;;;;;6.20;63.50;;;;;;5074734;28;19962;-65
2021/12/18 08:13:29;;;;;;;;;;;6.20;63.60;;;;;;5074659;28;19943;-63
2021/12/18 08:15:55;;;;;;;;;;;6.30;63.70;;;;;;5075103;28;19948;-63
2021/12/18 08:18:21;;;;;;;;;;;6.30;63.70;;;;;;5072849;28;19924;-63
2021/12/18 08:20:46;;;;;;;;;;;6.40;63.70;;;;;;5074583;28;19913;-63
2021/12/18 08:23:13;;;;;;;;;;;6.40;63.60;;;;;;5074542;28;19909;-63
2021/12/18 08:25:38;;;;;;;;;;;6.50;63.60;;;;;;5074481;28;19951;-63
2021/12/18 08:28:05;;;;;;;;;;;6.50;63.50;;;;;;5073157;28;19956;-63
2021/12/18 08:30:31;;;;;;;;;;;6.60;63.40;;;;;;5072698;28;19958;-63
2021/12/18 08:32:58;;;;;;;;;;;6.60;63.30;;;;;;5074229;28;19934;-64
2021/12/18 08:35:25;;;;;;;;;;;6.60;63.20;;;;;;5072977;28;19908;-62
2021/12/18 08:37:51;;;;;;;;;;;6.60;63.20;;;;;;5074211;28;19908;-63
2021/12/18 08:40:17;;;;;;;;;;;6.70;63.30;;;;;;5072450;28;20054;-63
2021/12/18 08:42:43;;;;;;;;;;;6.70;63.30;;;;;;5061631;28;20003;-63
2021/12/18 08:45:08;;;;;;;;;;;6.70;63.30;;;;;;5053999;28;19924;-63
2021/12/18 08:47:34;;;;;;;;;;;6.80;63.40;;;;;;5054108;28;19998;-63
2021/12/18 08:50:00;;;;;;;;;;;6.90;63.50;;;;;;5056049;28;20481;-63
2021/12/18 08:52:26;;;;;;;;;;;7.00;63.50;;;;;;5074040;28;20267;-63
2021/12/18 08:54:51;;;;;;;;;;;7.00;63.60;;;;;;5073933;28;19912;-63
2021/12/18 08:57:17;;;;;;;;;;;7.10;63.60;;;;;;5073950;28;20285;-63
2021/12/18 08:59:43;;;;;;;;;;;7.20;63.50;;;;;;5074129;28;19908;-63
2021/12/18 09:02:09;;;;;;;;;;;7.30;63.50;;;;;;5073206;28;20354;-63
2021/12/18 09:04:35;;;;;;;;;;;7.30;63.40;;;;;;5053699;28;19917;-64
2021/12/18 09:07:02;;;;;;;;;;;7.40;63.10;;;;;;5053749;28;19908;-63
2021/12/18 09:09:27;;;;;;;;;;;7.50;62.90;;;;;;5052347;28;19956;-63
2021/12/18 09:11:53;;;;;;;;;;;7.60;62.90;;;;;;5053164;28;19916;-63
2021/12/18 09:14:19;;;;;;;;;;;7.60;62.80;;;;;;5053662;28;19940;-63
2021/12/18 09:16:44;;;;;;;;;;;7.70;63.20;;;;;;5072309;28;19921;-63
2021/12/18 09:19:10;;;;;;;;;;;7.80;62.30;;;;;;5073580;28;19908;-63
2021/12/18 09:21:36;;;;;;;;;;;7.90;62.20;;;;;;5073487;28;19909;-64
2021/12/18 09:24:02;;;;;;;;;;;7.90;62.10;;;;;;5073438;28;20062;-63
2021/12/18 09:26:28;;;;;;;;;;;8.00;61.80;;;;;;5073280;28;19912;-63
2021/12/18 09:28:53;;;;;;;;;;;8.00;61.60;;;;;;5071318;28;20297;-63
2021/12/18 09:31:19;;;;;;;;;;;8.10;61.50;;;;;;5072972;28;19989;-63
2021/12/18 09:33:44;;;;;;;;;;;8.20;61.30;;;;;;5073182;28;19908;-63
2021/12/18 09:36:10;;;;;;;;;;;8.20;61.00;;;;;;5073278;28;19909;-63
2021/12/18 09:38:36;;;;;;;;;;;8.30;60.60;;;;;;5073172;28;19915;-63
2021/12/18 09:41:02;;;;;;;;;;;8.30;60.40;;;;;;5060666;28;19919;-64
2021/12/18 09:43:29;;;;;;;;;;;8.30;59.90;;;;;;5051943;28;19937;-63
2021/12/18 09:46:09;;;;;;;;;;;8.40;60.00;;;;;;5053103;28;20332;-64
2021/12/18 09:48:35;;;;;;;;;;;8.50;60.10;;;;;;5053118;28;19952;-64
2021/12/18 09:51:05;;;;;;;;;;;8.60;60.10;;;;;;5053022;28;19909;-64
2021/12/18 09:53:31;;;;;;;;;;;8.60;59.70;;;;;;5070775;28;19962;-64
2021/12/18 09:55:56;;;;;;;;;;;8.70;59.50;;;;;;5072974;28;19940;-64
2021/12/18 09:58:22;;;;;;;;;;;8.80;59.50;;;;;;5072971;28;20258;-64
2021/12/18 10:00:48;;;;;;;;;;;8.90;59.70;;;;;;5073010;28;19909;-64
2021/12/18 10:03:14;;;;;;;;;;;9.00;59.10;;;;;;5072788;28;19909;-64
2021/12/18 10:05:39;;;;;;;;;;;9.10;58.90;;;;;;5057187;28;20216;-64
2021/12/18 10:08:08;;;;;;;;;;;9.20;58.70;;;;;;5052868;28;20321;-64
2021/12/18 10:10:34;;;;;;;;;;;9.30;58.50;;;;;;5052899;28;19955;-64
2021/12/18 10:13:09;;;;;;;;;;;9.40;58.40;;;;;;5052821;28;20437;-64
2021/12/18 10:15:37;;;;;;;;;;;9.50;58.70;;;;;;5052838;28;19916;-64
2021/12/18 10:18:11;;;;;;;;;;;9.60;58.00;;;;;;5053557;28;19979;-64
2021/12/18 10:20:38;;;;;;;;;;;9.60;58.00;;;;;;5052812;28;19909;-64
2021/12/18 10:23:05;;;;;;;;;;;9.80;58.20;;;;;;5054254;28;19915;-64
2021/12/18 10:25:32;;;;;;;;;;;9.80;57.90;;;;;;5056760;28;19913;-64
2021/12/18 10:28:04;;;;;;;;;;;9.90;57.50;;;;;;5056714;28;19917;-64
2021/12/18 10:30:30;;;;;;;;;;;9.90;57.20;;;;;;5071709;28;20358;-64
2021/12/18 10:33:07;;;;;;;;;;;9.90;56.80;;;;;;5068053;28;19995;-64
2021/12/18 10:35:44;;;;;;;;;;;10.00;56.80;;;;;;5073369;28;20362;-64
2021/12/18 10:38:29;;;;;;;;;;;10.00;56.60;;;;;;5062833;28;19954;-64
2021/12/18 10:40:55;;;;;;;;;;;10.00;56.40;;;;;;5056270;28;19912;-64
2021/12/18 10:43:21;;;;;;;;;;;10.00;56.40;;;;;;5067834;28;19920;-64
2021/12/18 10:45:46;;;;;;;;;;;10.10;56.50;;;;;;5056246;28;20008;-64
2021/12/18 10:48:15;;;;;;;;;;;10.10;56.60;;;;;;5070961;28;20285;-65
2021/12/18 10:50:45;;;;;;;;;;;10.20;56.50;;;;;;5076389;28;19913;-65
2021/12/18 10:53:18;;;;;;;;;;;10.30;56.30;;;;;;5074436;28;19912;-65
2021/12/18 10:55:55;;;;;;;;;;;10.30;56.20;;;;;;5076265;28;19916;-65
2021/12/18 10:58:25;;;;;;;;;;;10.40;56.80;;;;;;5076239;28;20353;-64
2021/12/18 11:00:58;;;;;;;;;;;10.50;56.10;;;;;;5062504;28;19908;-65
2021/12/18 11:03:26;;;;;;;;;;;10.50;56.00;;;;;;5056064;28;20220;-65
2021/12/18 11:06:01;;;;;;;;;;;10.50;55.40;;;;;;5055988;28;20382;-65
2021/12/18 11:08:27;;;;;;;;;;;10.50;55.10;;;;;;5056062;28;19909;-64
2021/12/18 11:13:56;;;;;;;;;;;10.60;55.30;;;;;;5056014;28;20012;-64
2021/12/18 11:16:22;;;;;;;;;;;10.60;55.40;;;;;;5055682;28;19948;-64
2021/12/18 11:18:48;;;;;;;;;;;10.60;55.30;;;;;;5053387;28;19917;-64
2021/12/18 11:21:14;;;;;;;;;;;10.60;55.30;;;;;;5053353;28;19954;-64
2021/12/18 11:24:01;;;;;;;;;;;10.70;55.10;;;;;;5054569;28;20007;-64
2021/12/18 11:26:31;;;;;;;;;;;10.70;54.90;;;;;;5054414;28;19917;-64
2021/12/18 11:28:58;;;;;;;;;;;10.80;54.80;;;;;;5054713;28;19908;-63
2021/12/18 11:31:26;;;;;;;;;;;10.70;55.00;;;;;;5053130;28;19959;-64
2021/12/18 11:33:51;;;;;;;;;;;10.70;54.40;;;;;;5054003;28;19908;-64
2021/12/18 11:36:17;;;;;;;;;;;10.70;54.40;;;;;;5057612;28;20043;-64
2021/12/18 11:38:44;;;;;;;;;;;10.70;54.50;;;;;;5059854;28;20285;-63
2021/12/18 11:41:14;;;;;;;;;;;10.70;54.40;;;;;;5056524;28;20408;-64
2021/12/18 11:43:42;;;;;;;;;;;10.70;54.40;;;;;;5057608;28;19913;-63
2021/12/18 11:46:26;;;;;;;;;;;10.70;54.30;;;;;;5070444;28;19921;-63
2021/12/18 11:48:55;;;;;;;;;;;10.60;54.20;;;;;;5074072;28;19909;-63
2021/12/18 11:51:22;;;;;;;;;;;10.60;54.00;;;;;;5065119;28;19962;-64
2021/12/18 11:53:48;;;;;;;;;;;10.60;54.00;;;;;;5059871;28;19952;-63
2021/12/18 11:56:14;;;;;;;;;;;10.60;54.20;;;;;;5053053;28;20285;-64
2021/12/18 11:58:43;;;;;;;;;;;10.50;54.00;;;;;;5071812;28;20307;-63
2021/12/18 12:01:15;;;;;;;;;;;10.50;54.00;;;;;;5073034;28;20273;-64
2021/12/18 12:03:43;;;;;;;;;;;10.50;54.10;;;;;;5067066;28;19938;-63
2021/12/18 12:06:44;;;;;;;;;;;10.50;53.90;;;;;;5052823;28;19934;-64
2021/12/18 12:11:53;;;;;;;;;;;10.50;53.90;;;;;;5080688;28;19960;-64
2021/12/18 12:14:20;;;;;;;;;;;10.40;53.90;;;;;;5084614;28;19927;-64
2021/12/18 12:16:46;;;;;;;;;;;10.40;53.90;;;;;;4964840;28;3557375;-64
2021/12/18 12:19:11;;;;;;;;;;;10.40;53.80;;;;;;5091711;28;20373;-64
2021/12/18 12:21:38;;;;;;;;;;;10.40;53.70;;;;;;5091622;28;19919;-64
2021/12/18 12:24:06;;;;;;;;;;;10.40;53.60;;;;;;5085886;28;19908;-64
2021/12/18 12:26:32;;;;;;;;;;;10.40;53.60;;;;;;5071055;28;19923;-64
2021/12/18 12:28:58;;;;;;;;;;;10.30;53.50;;;;;;5073355;28;20393;-64
2021/12/18 12:31:24;;;;;;;;;;;10.30;53.60;;;;;;5071185;28;19947;-64
2021/12/18 12:33:51;;;;;;;;;;;10.30;53.60;;;;;;5070897;28;20305;-64
2021/12/18 12:36:24;;;;;;;;;;;10.30;53.70;;;;;;5071116;28;20597;-64
2021/12/18 12:39:01;;;;;;;;;;;10.30;53.60;;;;;;5073427;28;19920;-64
2021/12/18 12:41:52;;;;;;;;;;;10.30;53.50;;;;;;5091488;28;19991;-64
2021/12/18 12:44:35;;;;;;;;;;;10.30;53.60;;;;;;5063435;28;20281;-64
2021/12/18 12:47:15;;;;;;;;;;;10.30;53.50;;;;;;5057343;28;19909;-64
2021/12/18 12:49:40;;;;;;;;;;;10.30;53.40;;;;;;5053026;28;20006;-64
2021/12/18 12:52:08;;;;;;;;;;;10.30;53.40;;;;;;5053086;28;19956;-64
2021/12/18 12:54:46;;;;;;;;;;;10.30;53.30;;;;;;5054152;28;20003;-64
2021/12/18 12:57:27;;;;;;;;;;;10.20;53.20;;;;;;5052992;28;19917;-64
2021/12/18 12:59:59;;;;;;;;;;;10.20;53.30;;;;;;5052927;28;19920;-63
2021/12/18 13:02:29;;;;;;;;;;;10.20;53.20;;;;;;5058310;28;20073;-63
2021/12/18 13:05:01;;;;;;;;;;;10.20;53.30;;;;;;5055559;28;19928;-63
2021/12/18 13:07:27;;;;;;;;;;;10.20;53.30;;;;;;5062312;28;19909;-63
2021/12/18 13:09:53;;;;;;;;;;;10.20;53.20;;;;;;5053012;28;20050;-63
2021/12/18 13:12:18;;;;;;;;;;;10.10;52.80;;;;;;5057812;28;19908;-64
2021/12/18 13:14:44;;;;;;;;;;;10.10;52.90;;;;;;5053835;28;19962;-63
2021/12/18 13:17:16;;;;;;;;;;;10.10;52.90;;;;;;5070808;28;19955;-63
2021/12/18 13:20:05;;;;;;;;;;;10.00;52.90;;;;;;5058875;28;19921;-64
2021/12/18 13:22:32;;;;;;;;;;;9.90;52.80;;;;;;5070329;28;19991;-63
2021/12/18 13:25:01;;;;;;;;;;;10.00;53.00;;;;;;5072401;28;20377;-63
2021/12/18 13:27:27;;;;;;;;;;;10.00;53.10;;;;;;5066155;28;20312;-64
2021/12/18 13:30:12;;;;;;;;;;;10.00;53.20;;;;;;5051149;28;19996;-64
2021/12/18 13:32:50;;;;;;;;;;;10.00;53.20;;;;;;5052323;28;19913;-64
2021/12/18 13:35:16;;;;;;;;;;;10.00;53.20;;;;;;5052430;28;20362;-63
2021/12/18 13:37:42;;;;;;;;;;;9.90;53.10;;;;;;5058162;28;20007;-63
2021/12/18 13:40:16;;;;;;;;;;;10.00;53.20;;;;;;5070344;28;19959;-63
2021/12/18 13:42:42;;;;;;;;;;;10.00;53.30;;;;;;5070486;28;19965;-63
2021/12/18 13:45:08;;;;;;;;;;;10.00;53.20;;;;;;5072036;28;20398;-63
2021/12/18 13:47:35;;;;;;;;;;;10.00;53.20;;;;;;5071289;28;19909;-63
2021/12/18 13:50:14;;;;;;;;;;;10.00;53.10;;;;;;5067755;28;19909;-63
2021/12/18 13:52:45;;;;;;;;;;;10.00;53.10;;;;;;5052121;28;19916;-63
2021/12/18 13:55:21;;;;;;;;;;;9.90;53.00;;;;;;5052147;28;19912;-63
2021/12/18 13:57:59;;;;;;;;;;;9.90;53.00;;;;;;5051874;28;19916;-64
2021/12/18 14:00:25;;;;;;;;;;;9.90;53.60;;;;;;5052094;28;19916;-63
2021/12/18 14:02:51;;;;;;;;;;;9.80;53.00;;;;;;5059192;28;20278;-64
2021/12/18 14:05:16;;;;;;;;;;;9.80;53.00;;;;;;5072095;28;19916;-63
2021/12/18 14:07:43;;;;;;;;;;;9.80;53.10;;;;;;5071977;28;19954;-63
2021/12/18 14:10:09;;;;;;;;;;;9.70;52.90;;;;;;5071846;28;19904;-63
2021/12/18 14:12:34;;;;;;;;;;;9.60;52.90;;;;;;5071955;28;19915;-62
2021/12/18 14:15:00;;;;;;;;;;;9.60;53.00;;;;;;5064282;28;19995;-64
2021/12/18 14:17:26;;;;;;;;;;;9.60;53.50;;;;;;5054869;28;19929;-63
2021/12/18 14:19:53;;;;;;;;;;;9.50;53.00;;;;;;5062786;28;19912;-63
2021/12/18 14:22:30;;;;;;;;;;;9.50;53.10;;;;;;5057328;28;20375;-63
2021/12/18 14:25:00;;;;;;;;;;;9.50;53.10;;;;;;5054207;28;19917;-63
2021/12/18 14:27:41;;;;;;;;;;;9.40;53.20;;;;;;5066782;28;19977;-63
2021/12/18 14:30:14;;;;;;;;;;;9.40;53.20;;;;;;5071760;28;20362;-63
2021/12/18 14:32:40;;;;;;;;;;;9.30;53.20;;;;;;5069409;28;19912;-63
2021/12/18 14:35:10;;;;;;;;;;;9.30;53.30;;;;;;5051884;28;19908;-63
2021/12/18 14:37:45;;;;;;;;;;;9.30;53.40;;;;;;5064599;28;20277;-64
2021/12/18 14:40:15;;;;;;;;;;;9.30;53.40;;;;;;5052858;28;19913;-65
2021/12/18 14:42:48;;;;;;;;;;;9.30;53.50;;;;;;5064948;28;19913;-65
2021/12/18 14:45:20;;;;;;;;;;;9.30;53.60;;;;;;5058236;28;20011;-65
2021/12/18 14:47:47;;;;;;;;;;;9.30;53.60;;;;;;5068144;28;20407;-63
2021/12/18 14:50:26;;;;;;;;;;;9.30;53.60;;;;;;5062373;28;19944;-63
2021/12/18 14:52:58;;;;;;;;;;;9.30;53.50;;;;;;5065386;28;19916;-63
2021/12/18 14:55:47;;;;;;;;;;;9.30;53.50;;;;;;5071550;28;19912;-63
2021/12/18 14:58:32;;;;;;;;;;;9.30;53.50;;;;;;5061924;28;20057;-63
2021/12/18 15:01:03;;;;;;;;;;;9.30;53.50;;;;;;5062329;28;19912;-63
2021/12/18 15:03:37;;;;;;;;;;;9.20;53.50;;;;;;5070559;28;19905;-63
2021/12/18 15:06:21;;;;;;;;;;;9.20;53.50;;;;;;5071501;28;19913;-63
2021/12/18 15:09:07;;;;;;;;;;;9.20;53.60;;;;;;5072495;28;19908;-63
2021/12/18 15:11:37;;;;;;;;;;;9.20;53.70;;;;;;5075075;28;19909;-63
2021/12/18 15:14:03;;;;;;;;;;;9.20;53.70;;;;;;5070680;28;19999;-63
2021/12/18 15:16:30;;;;;;;;;;;9.20;53.80;;;;;;5054820;28;19992;-63
2021/12/18 15:18:59;;;;;;;;;;;9.20;53.70;;;;;;5054912;28;19936;-64